sensor_id;sensor_type;location;lat;lon;timestamp;temperature;humidity
25532;DHT22;13429;48.816;9.118;2024-02-23T00:01:44;5.70;81.40
25532;DHT22;13429;48.816;9.118;2024-02-23T00:04:10;5.60;82.10
25532;DHT22;13429;48.816;9.118;2024-02-23T00:06:36;5.70;81.50
25532;DHT22;13429;48.816;9.118;2024-02-23T00:09:02;5.70;81.40
25532;DHT22;13429;48.816;9.118;2024-02-23T00:11:27;5.70;81.60
25532;DHT22;13429;48.816;9.118;2024-02-23T00:13:54;5.60;81.80
25532;DHT22;13429;48.816;9.118;2024-02-23T00:16:19;5.70;81.60
25532;DHT22;13429;48.816;9.118;2024-02-23T00:18:45;5.70;81.50
25532;DHT22;13429;48.816;9.118;2024-02-23T00:21:11;5.70;81.40
25532;DHT22;13429;48.816;9.118;2024-02-23T00:23:36;5.70;81.40
25532;DHT22;13429;48.816;9.118;2024-02-23T00:26:02;5.70;80.80
25532;DHT22;13429;48.816;9.118;2024-02-23T00:28:28;5.80;80.80
25532;DHT22;13429;48.816;9.118;2024-02-23T00:30:54;5.70;81.40
25532;DHT22;13429;48.816;9.118;2024-02-23T00:33:19;5.80;80.20
25532;DHT22;13429;48.816;9.118;2024-02-23T00:35:45;5.80;80.00
25532;DHT22;13429;48.816;9.118;2024-02-23T00:38:11;5.80;80.10
25532;DHT22;13429;48.816;9.118;2024-02-23T00:40:36;5.80;79.50
25532;DHT22;13429;48.816;9.118;2024-02-23T00:43:04;5.80;79.90
25532;DHT22;13429;48.816;9.118;2024-02-23T00:45:29;5.80;79.70
25532;DHT22;13429;48.816;9.118;2024-02-23T00:47:55;5.80;79.30
25532;DHT22;13429;48.816;9.118;2024-02-23T00:50:22;5.80;79.70
25532;DHT22;13429;48.816;9.118;2024-02-23T00:52:49;5.80;78.90
25532;DHT22;13429;48.816;9.118;2024-02-23T00:55:14;5.80;78.80
25532;DHT22;13429;48.816;9.118;2024-02-23T00:57:40;5.80;78.90
25532;DHT22;13429;48.816;9.118;2024-02-23T01:00:06;5.80;78.90
25532;DHT22;13429;48.816;9.118;2024-02-23T01:02:32;5.80;79.30
25532;DHT22;13429;48.816;9.118;2024-02-23T01:04:58;5.80;79.50
25532;DHT22;13429;48.816;9.118;2024-02-23T01:07:24;5.80;79.40
25532;DHT22;13429;48.816;9.118;2024-02-23T01:09:50;5.80;79.40
25532;DHT22;13429;48.816;9.118;2024-02-23T01:12:16;5.80;78.20
25532;DHT22;13429;48.816;9.118;2024-02-23T01:14:42;5.80;77.80
25532;DHT22;13429;48.816;9.118;2024-02-23T01:17:07;5.80;78.10
25532;DHT22;13429;48.816;9.118;2024-02-23T01:19:33;5.80;78.50
25532;DHT22;13429;48.816;9.118;2024-02-23T01:21:59;5.80;78.60
25532;DHT22;13429;48.816;9.118;2024-02-23T01:24:28;5.80;78.80
25532;DHT22;13429;48.816;9.118;2024-02-23T01:26:55;5.70;79.50
25532;DHT22;13429;48.816;9.118;2024-02-23T01:29:21;5.80;79.30
25532;DHT22;13429;48.816;9.118;2024-02-23T01:31:48;5.70;79.40
25532;DHT22;13429;48.816;9.118;2024-02-23T01:34:14;5.60;79.70
25532;DHT22;13429;48.816;9.118;2024-02-23T01:36:40;5.60;80.20
25532;DHT22;13429;48.816;9.118;2024-02-23T01:39:05;5.60;80.60
25532;DHT22;13429;48.816;9.118;2024-02-23T01:41:31;5.60;80.40
25532;DHT22;13429;48.816;9.118;2024-02-23T01:43:58;5.60;80.70
25532;DHT22;13429;48.816;9.118;2024-02-23T01:46:24;5.60;80.60
25532;DHT22;13429;48.816;9.118;2024-02-23T01:48:49;5.60;81.00
25532;DHT22;13429;48.816;9.118;2024-02-23T01:51:15;5.60;81.20
25532;DHT22;13429;48.816;9.118;2024-02-23T01:53:41;5.60;81.50
25532;DHT22;13429;48.816;9.118;2024-02-23T01:56:07;5.60;81.30
25532;DHT22;13429;48.816;9.118;2024-02-23T01:58:35;5.60;81.50
25532;DHT22;13429;48.816;9.118;2024-02-23T02:01:02;5.60;81.40
25532;DHT22;13429;48.816;9.118;2024-02-23T02:03:28;5.60;81.30
25532;DHT22;13429;48.816;9.118;2024-02-23T02:05:54;5.60;81.50
25532;DHT22;13429;48.816;9.118;2024-02-23T02:08:20;5.60;81.10
25532;DHT22;13429;48.816;9.118;2024-02-23T02:11:07;5.60;81.50
25532;DHT22;13429;48.816;9.118;2024-02-23T02:13:33;5.70;81.00
25532;DHT22;13429;48.816;9.118;2024-02-23T02:16:00;5.70;81.10
25532;DHT22;13429;48.816;9.118;2024-02-23T02:18:27;5.70;81.10
25532;DHT22;13429;48.816;9.118;2024-02-23T02:20:57;5.80;81.50
25532;DHT22;13429;48.816;9.118;2024-02-23T02:23:23;5.70;81.90
25532;DHT22;13429;48.816;9.118;2024-02-23T02:25:56;5.70;81.70
25532;DHT22;13429;48.816;9.118;2024-02-23T02:28:25;5.70;82.20
25532;DHT22;13429;48.816;9.118;2024-02-23T02:30:52;5.70;82.20
25532;DHT22;13429;48.816;9.118;2024-02-23T02:33:22;5.70;82.60
25532;DHT22;13429;48.816;9.118;2024-02-23T02:35:48;5.60;82.60
25532;DHT22;13429;48.816;9.118;2024-02-23T02:38:15;5.60;83.00
25532;DHT22;13429;48.816;9.118;2024-02-23T02:40:41;5.50;82.70
25532;DHT22;13429;48.816;9.118;2024-02-23T02:43:07;5.50;82.70
25532;DHT22;13429;48.816;9.118;2024-02-23T02:45:32;5.50;82.80
25532;DHT22;13429;48.816;9.118;2024-02-23T02:48:00;5.40;82.70
25532;DHT22;13429;48.816;9.118;2024-02-23T02:50:26;5.40;82.60
25532;DHT22;13429;48.816;9.118;2024-02-23T02:52:52;5.40;82.80
25532;DHT22;13429;48.816;9.118;2024-02-23T02:58:39;5.40;82.10
25532;DHT22;13429;48.816;9.118;2024-02-23T03:01:05;5.40;81.80
25532;DHT22;13429;48.816;9.118;2024-02-23T03:03:31;5.40;81.10
25532;DHT22;13429;48.816;9.118;2024-02-23T03:05:56;5.40;80.50
25532;DHT22;13429;48.816;9.118;2024-02-23T03:08:22;5.30;80.60
25532;DHT22;13429;48.816;9.118;2024-02-23T03:10:48;5.30;80.60
25532;DHT22;13429;48.816;9.118;2024-02-23T03:13:14;5.30;80.10
25532;DHT22;13429;48.816;9.118;2024-02-23T03:15:39;5.30;80.40
25532;DHT22;13429;48.816;9.118;2024-02-23T03:18:05;5.30;80.60
25532;DHT22;13429;48.816;9.118;2024-02-23T03:20:31;5.30;79.20
25532;DHT22;13429;48.816;9.118;2024-02-23T03:22:56;5.30;79.60
25532;DHT22;13429;48.816;9.118;2024-02-23T03:25:22;5.30;79.40
25532;DHT22;13429;48.816;9.118;2024-02-23T03:27:47;5.30;78.80
25532;DHT22;13429;48.816;9.118;2024-02-23T03:30:13;5.20;79.20
25532;DHT22;13429;48.816;9.118;2024-02-23T03:32:39;5.30;78.40
25532;DHT22;13429;48.816;9.118;2024-02-23T03:35:06;5.30;78.00
25532;DHT22;13429;48.816;9.118;2024-02-23T03:37:32;5.20;77.80
25532;DHT22;13429;48.816;9.118;2024-02-23T03:39:58;5.20;77.30
25532;DHT22;13429;48.816;9.118;2024-02-23T03:42:25;5.30;76.70
25532;DHT22;13429;48.816;9.118;2024-02-23T03:44:51;5.20;77.20
25532;DHT22;13429;48.816;9.118;2024-02-23T03:47:16;5.20;77.40
25532;DHT22;13429;48.816;9.118;2024-02-23T03:49:42;5.10;76.60
25532;DHT22;13429;48.816;9.118;2024-02-23T03:52:07;5.20;76.40
25532;DHT22;13429;48.816;9.118;2024-02-23T03:54:33;5.20;76.80
25532;DHT22;13429;48.816;9.118;2024-02-23T03:56:59;5.10;78.00
25532;DHT22;13429;48.816;9.118;2024-02-23T03:59:24;5.00;77.70
25532;DHT22;13429;48.816;9.118;2024-02-23T04:01:50;5.00;77.10
25532;DHT22;13429;48.816;9.118;2024-02-23T04:04:16;4.90;76.60
25532;DHT22;13429;48.816;9.118;2024-02-23T04:06:42;4.90;77.20
25532;DHT22;13429;48.816;9.118;2024-02-23T04:09:08;4.90;75.60
25532;DHT22;13429;48.816;9.118;2024-02-23T04:14:56;4.90;76.40
25532;DHT22;13429;48.816;9.118;2024-02-23T04:17:21;5.00;75.60
25532;DHT22;13429;48.816;9.118;2024-02-23T04:19:47;5.00;75.10
25532;DHT22;13429;48.816;9.118;2024-02-23T04:22:13;4.90;75.50
25532;DHT22;13429;48.816;9.118;2024-02-23T04:24:39;4.90;75.70
25532;DHT22;13429;48.816;9.118;2024-02-23T04:27:08;4.90;74.60
25532;DHT22;13429;48.816;9.118;2024-02-23T04:29:34;4.80;76.20
25532;DHT22;13429;48.816;9.118;2024-02-23T04:32:00;4.80;75.40
25532;DHT22;13429;48.816;9.118;2024-02-23T04:34:27;4.80;75.50
25532;DHT22;13429;48.816;9.118;2024-02-23T04:36:53;4.80;75.60
25532;DHT22;13429;48.816;9.118;2024-02-23T04:39:19;4.70;75.70
25532;DHT22;13429;48.816;9.118;2024-02-23T04:41:45;4.70;76.30
25532;DHT22;13429;48.816;9.118;2024-02-23T04:44:11;4.60;77.00
25532;DHT22;13429;48.816;9.118;2024-02-23T04:46:36;4.60;76.50
25532;DHT22;13429;48.816;9.118;2024-02-23T04:49:02;4.50;76.80
25532;DHT22;13429;48.816;9.118;2024-02-23T04:51:28;4.50;76.00
25532;DHT22;13429;48.816;9.118;2024-02-23T04:53:53;4.50;76.60
25532;DHT22;13429;48.816;9.118;2024-02-23T04:56:19;4.40;77.20
25532;DHT22;13429;48.816;9.118;2024-02-23T04:58:46;4.40;77.60
25532;DHT22;13429;48.816;9.118;2024-02-23T05:01:12;4.30;78.10
25532;DHT22;13429;48.816;9.118;2024-02-23T05:03:38;4.30;78.00
25532;DHT22;13429;48.816;9.118;2024-02-23T05:06:04;4.30;77.40
25532;DHT22;13429;48.816;9.118;2024-02-23T05:08:30;4.20;78.20
25532;DHT22;13429;48.816;9.118;2024-02-23T05:10:59;4.20;78.10
25532;DHT22;13429;48.816;9.118;2024-02-23T05:13:25;4.10;78.90
25532;DHT22;13429;48.816;9.118;2024-02-23T05:15:51;4.10;78.90
25532;DHT22;13429;48.816;9.118;2024-02-23T05:18:17;4.20;78.30
25532;DHT22;13429;48.816;9.118;2024-02-23T05:20:42;4.10;78.20
25532;DHT22;13429;48.816;9.118;2024-02-23T05:23:08;4.10;77.90
25532;DHT22;13429;48.816;9.118;2024-02-23T05:25:34;4.20;76.90
25532;DHT22;13429;48.816;9.118;2024-02-23T05:28:00;4.20;77.10
25532;DHT22;13429;48.816;9.118;2024-02-23T05:30:25;4.10;77.30
25532;DHT22;13429;48.816;9.118;2024-02-23T05:32:52;4.10;77.00
25532;DHT22;13429;48.816;9.118;2024-02-23T05:35:18;4.10;77.60
25532;DHT22;13429;48.816;9.118;2024-02-23T05:37:44;4.00;77.90
25532;DHT22;13429;48.816;9.118;2024-02-23T05:40:10;4.00;78.30
25532;DHT22;13429;48.816;9.118;2024-02-23T05:42:39;3.90;78.90
25532;DHT22;13429;48.816;9.118;2024-02-23T05:45:06;3.90;78.80
25532;DHT22;13429;48.816;9.118;2024-02-23T05:47:34;3.80;79.30
25532;DHT22;13429;48.816;9.118;2024-02-23T05:50:00;3.80;79.30
25532;DHT22;13429;48.816;9.118;2024-02-23T05:52:26;3.80;79.50
25532;DHT22;13429;48.816;9.118;2024-02-23T05:54:52;3.80;79.30
25532;DHT22;13429;48.816;9.118;2024-02-23T05:57:21;3.80;79.50
25532;DHT22;13429;48.816;9.118;2024-02-23T05:59:47;3.90;78.30
25532;DHT22;13429;48.816;9.118;2024-02-23T06:02:13;3.90;78.40
25532;DHT22;13429;48.816;9.118;2024-02-23T06:04:40;3.80;78.50
25532;DHT22;13429;48.816;9.118;2024-02-23T06:07:06;3.80;78.20
25532;DHT22;13429;48.816;9.118;2024-02-23T06:09:31;3.80;77.40
25532;DHT22;13429;48.816;9.118;2024-02-23T06:11:57;3.80;77.70
25532;DHT22;13429;48.816;9.118;2024-02-23T06:14:23;3.80;77.60
25532;DHT22;13429;48.816;9.118;2024-02-23T06:16:49;3.80;77.80
25532;DHT22;13429;48.816;9.118;2024-02-23T06:19:15;3.80;78.40
25532;DHT22;13429;48.816;9.118;2024-02-23T06:21:40;3.80;78.60
25532;DHT22;13429;48.816;9.118;2024-02-23T06:24:07;3.80;78.60
25532;DHT22;13429;48.816;9.118;2024-02-23T06:26:34;3.80;79.10
25532;DHT22;13429;48.816;9.118;2024-02-23T06:32:22;3.70;79.50
25532;DHT22;13429;48.816;9.118;2024-02-23T06:34:47;3.60;80.00
25532;DHT22;13429;48.816;9.118;2024-02-23T06:37:13;3.60;80.00
25532;DHT22;13429;48.816;9.118;2024-02-23T06:39:39;3.60;80.30
25532;DHT22;13429;48.816;9.118;2024-02-23T06:42:05;3.60;80.50
25532;DHT22;13429;48.816;9.118;2024-02-23T06:44:30;3.70;80.90
25532;DHT22;13429;48.816;9.118;2024-02-23T06:46:56;3.70;81.30
25532;DHT22;13429;48.816;9.118;2024-02-23T06:49:22;3.70;81.30
25532;DHT22;13429;48.816;9.118;2024-02-23T06:51:47;3.80;81.00
25532;DHT22;13429;48.816;9.118;2024-02-23T06:54:13;3.80;81.30
25532;DHT22;13429;48.816;9.118;2024-02-23T06:56:38;3.80;81.70
25532;DHT22;13429;48.816;9.118;2024-02-23T06:59:04;3.90;82.10
25532;DHT22;13429;48.816;9.118;2024-02-23T07:01:30;3.90;82.00
25532;DHT22;13429;48.816;9.118;2024-02-23T07:03:56;3.90;82.10
25532;DHT22;13429;48.816;9.118;2024-02-23T07:06:22;3.90;82.10
25532;DHT22;13429;48.816;9.118;2024-02-23T07:08:47;4.00;82.20
25532;DHT22;13429;48.816;9.118;2024-02-23T07:11:13;4.00;82.80
25532;DHT22;13429;48.816;9.118;2024-02-23T07:13:39;4.10;82.40
25532;DHT22;13429;48.816;9.118;2024-02-23T07:16:07;4.10;82.40
25532;DHT22;13429;48.816;9.118;2024-02-23T07:18:33;4.10;82.50
25532;DHT22;13429;48.816;9.118;2024-02-23T07:20:59;4.20;82.70
25532;DHT22;13429;48.816;9.118;2024-02-23T07:23:25;4.30;82.50
25532;DHT22;13429;48.816;9.118;2024-02-23T07:25:50;4.30;82.60
25532;DHT22;13429;48.816;9.118;2024-02-23T07:28:16;4.30;82.50
25532;DHT22;13429;48.816;9.118;2024-02-23T07:30:45;4.30;82.00
25532;DHT22;13429;48.816;9.118;2024-02-23T07:33:11;4.40;82.10
25532;DHT22;13429;48.816;9.118;2024-02-23T07:35:36;4.40;82.10
25532;DHT22;13429;48.816;9.118;2024-02-23T07:38:02;4.50;82.20
25532;DHT22;13429;48.816;9.118;2024-02-23T07:40:28;4.50;82.00
25532;DHT22;13429;48.816;9.118;2024-02-23T07:42:53;4.50;81.70
25532;DHT22;13429;48.816;9.118;2024-02-23T07:45:19;4.60;81.50
25532;DHT22;13429;48.816;9.118;2024-02-23T07:47:45;4.70;81.40
25532;DHT22;13429;48.816;9.118;2024-02-23T07:50:11;4.80;81.40
25532;DHT22;13429;48.816;9.118;2024-02-23T07:52:38;4.80;81.40
25532;DHT22;13429;48.816;9.118;2024-02-23T07:55:04;4.80;81.20
25532;DHT22;13429;48.816;9.118;2024-02-23T07:57:30;4.80;80.70
25532;DHT22;13429;48.816;9.118;2024-02-23T07:59:57;4.80;80.80
25532;DHT22;13429;48.816;9.118;2024-02-23T08:02:22;4.80;81.00
25532;DHT22;13429;48.816;9.118;2024-02-23T08:04:48;4.80;80.80
25532;DHT22;13429;48.816;9.118;2024-02-23T08:07:15;4.80;81.00
25532;DHT22;13429;48.816;9.118;2024-02-23T08:09:41;4.80;80.90
25532;DHT22;13429;48.816;9.118;2024-02-23T08:12:07;4.90;81.30
25532;DHT22;13429;48.816;9.118;2024-02-23T08:14:32;4.90;81.00
25532;DHT22;13429;48.816;9.118;2024-02-23T08:16:58;4.90;80.90
25532;DHT22;13429;48.816;9.118;2024-02-23T08:19:24;4.90;81.00
25532;DHT22;13429;48.816;9.118;2024-02-23T08:21:49;4.80;80.80
25532;DHT22;13429;48.816;9.118;2024-02-23T08:24:15;4.80;80.70
25532;DHT22;13429;48.816;9.118;2024-02-23T08:26:40;4.80;80.80
25532;DHT22;13429;48.816;9.118;2024-02-23T08:29:07;4.80;80.70
25532;DHT22;13429;48.816;9.118;2024-02-23T08:31:34;4.90;80.60
25532;DHT22;13429;48.816;9.118;2024-02-23T08:33:59;4.90;80.40
25532;DHT22;13429;48.816;9.118;2024-02-23T08:36:25;4.90;80.80
25532;DHT22;13429;48.816;9.118;2024-02-23T08:38:51;4.90;80.50
25532;DHT22;13429;48.816;9.118;2024-02-23T08:41:16;4.90;80.50
25532;DHT22;13429;48.816;9.118;2024-02-23T08:43:42;4.90;80.40
25532;DHT22;13429;48.816;9.118;2024-02-23T08:46:07;4.90;79.90
25532;DHT22;13429;48.816;9.118;2024-02-23T08:48:33;4.90;80.10
25532;DHT22;13429;48.816;9.118;2024-02-23T08:50:59;4.90;80.10
25532;DHT22;13429;48.816;9.118;2024-02-23T08:53:25;4.90;80.00
25532;DHT22;13429;48.816;9.118;2024-02-23T08:55:51;4.90;80.10
25532;DHT22;13429;48.816;9.118;2024-02-23T08:58:16;5.00;80.00
25532;DHT22;13429;48.816;9.118;2024-02-23T09:00:42;5.10;79.90
25532;DHT22;13429;48.816;9.118;2024-02-23T09:03:08;5.10;79.40
25532;DHT22;13429;48.816;9.118;2024-02-23T09:05:33;5.20;79.50
25532;DHT22;13429;48.816;9.118;2024-02-23T09:07:59;5.20;79.10
25532;DHT22;13429;48.816;9.118;2024-02-23T09:10:24;5.20;79.10
25532;DHT22;13429;48.816;9.118;2024-02-23T09:12:50;5.20;78.80
25532;DHT22;13429;48.816;9.118;2024-02-23T09:15:16;5.20;78.40
25532;DHT22;13429;48.816;9.118;2024-02-23T09:17:41;5.20;79.00
25532;DHT22;13429;48.816;9.118;2024-02-23T09:20:07;5.10;78.90
25532;DHT22;13429;48.816;9.118;2024-02-23T09:22:33;5.10;78.10
25532;DHT22;13429;48.816;9.118;2024-02-23T09:24:59;5.10;77.80
25532;DHT22;13429;48.816;9.118;2024-02-23T09:27:25;5.10;77.80
25532;DHT22;13429;48.816;9.118;2024-02-23T09:29:50;5.10;77.20
25532;DHT22;13429;48.816;9.118;2024-02-23T09:32:17;5.10;77.00
25532;DHT22;13429;48.816;9.118;2024-02-23T09:34:43;5.10;76.70
25532;DHT22;13429;48.816;9.118;2024-02-23T09:37:08;5.30;77.00
25532;DHT22;13429;48.816;9.118;2024-02-23T09:39:34;5.30;76.00
25532;DHT22;13429;48.816;9.118;2024-02-23T09:42:01;5.40;76.00
25532;DHT22;13429;48.816;9.118;2024-02-23T09:44:32;5.40;75.00
25532;DHT22;13429;48.816;9.118;2024-02-23T09:47:02;5.50;75.20
25532;DHT22;13429;48.816;9.118;2024-02-23T09:49:40;5.60;75.10
25532;DHT22;13429;48.816;9.118;2024-02-23T09:52:08;5.80;75.10
25532;DHT22;13429;48.816;9.118;2024-02-23T09:54:36;5.90;73.60
25532;DHT22;13429;48.816;9.118;2024-02-23T09:57:07;6.10;73.40
25532;DHT22;13429;48.816;9.118;2024-02-23T09:59:34;6.20;73.30
25532;DHT22;13429;48.816;9.118;2024-02-23T10:02:00;6.30;72.80
25532;DHT22;13429;48.816;9.118;2024-02-23T10:04:27;6.50;72.90
25532;DHT22;13429;48.816;9.118;2024-02-23T10:06:55;6.70;71.70
25532;DHT22;13429;48.816;9.118;2024-02-23T10:09:21;6.80;70.70
25532;DHT22;13429;48.816;9.118;2024-02-23T10:11:52;7.00;71.20
25532;DHT22;13429;48.816;9.118;2024-02-23T10:14:18;7.30;69.50
25532;DHT22;13429;48.816;9.118;2024-02-23T10:16:44;7.40;69.70
25532;DHT22;13429;48.816;9.118;2024-02-23T10:19:10;7.50;68.60
25532;DHT22;13429;48.816;9.118;2024-02-23T10:21:36;7.50;68.30
25532;DHT22;13429;48.816;9.118;2024-02-23T10:24:01;7.40;68.10
25532;DHT22;13429;48.816;9.118;2024-02-23T10:26:27;7.50;68.60
25532;DHT22;13429;48.816;9.118;2024-02-23T10:28:53;7.60;69.20
25532;DHT22;13429;48.816;9.118;2024-02-23T10:31:19;7.70;69.40
25532;DHT22;13429;48.816;9.118;2024-02-23T10:33:45;7.80;67.20
25532;DHT22;13429;48.816;9.118;2024-02-23T10:36:15;7.90;67.10
25532;DHT22;13429;48.816;9.118;2024-02-23T10:38:45;7.80;65.80
25532;DHT22;13429;48.816;9.118;2024-02-23T10:41:13;8.10;67.40
25532;DHT22;13429;48.816;9.118;2024-02-23T10:43:44;8.20;66.30
25532;DHT22;13429;48.816;9.118;2024-02-23T10:46:18;8.30;65.80
25532;DHT22;13429;48.816;9.118;2024-02-23T10:48:45;8.60;66.80
25532;DHT22;13429;48.816;9.118;2024-02-23T10:51:13;8.70;65.80
25532;DHT22;13429;48.816;9.118;2024-02-23T10:53:44;8.80;65.90
25532;DHT22;13429;48.816;9.118;2024-02-23T10:56:12;8.90;64.00
25532;DHT22;13429;48.816;9.118;2024-02-23T10:58:38;8.90;64.20
25532;DHT22;13429;48.816;9.118;2024-02-23T11:01:06;8.50;63.50
25532;DHT22;13429;48.816;9.118;2024-02-23T11:03:33;8.60;64.20
25532;DHT22;13429;48.816;9.118;2024-02-23T11:06:01;8.50;63.90
25532;DHT22;13429;48.816;9.118;2024-02-23T11:08:30;8.50;64.70
25532;DHT22;13429;48.816;9.118;2024-02-23T11:10:57;8.30;63.40
25532;DHT22;13429;48.816;9.118;2024-02-23T11:16:08;8.20;63.60
25532;DHT22;13429;48.816;9.118;2024-02-23T11:18:39;8.60;64.00
25532;DHT22;13429;48.816;9.118;2024-02-23T11:21:05;8.80;63.40
25532;DHT22;13429;48.816;9.118;2024-02-23T11:23:49;8.80;62.80
25532;DHT22;13429;48.816;9.118;2024-02-23T11:26:16;8.80;62.90
25532;DHT22;13429;48.816;9.118;2024-02-23T11:28:52;8.70;63.70
25532;DHT22;13429;48.816;9.118;2024-02-23T11:31:29;8.80;63.50
25532;DHT22;13429;48.816;9.118;2024-02-23T11:33:56;8.80;62.00
25532;DHT22;13429;48.816;9.118;2024-02-23T11:36:42;8.80;63.20
25532;DHT22;13429;48.816;9.118;2024-02-23T11:39:10;8.90;63.30
25532;DHT22;13429;48.816;9.118;2024-02-23T11:41:39;8.80;61.50
25532;DHT22;13429;48.816;9.118;2024-02-23T11:44:04;8.80;62.10
25532;DHT22;13429;48.816;9.118;2024-02-23T11:46:32;8.70;61.60
25532;DHT22;13429;48.816;9.118;2024-02-23T11:48:58;8.60;61.30
25532;DHT22;13429;48.816;9.118;2024-02-23T11:51:26;8.40;61.50
25532;DHT22;13429;48.816;9.118;2024-02-23T11:53:55;8.20;61.40
25532;DHT22;13429;48.816;9.118;2024-02-23T11:56:23;8.20;61.50
25532;DHT22;13429;48.816;9.118;2024-02-23T11:58:49;8.20;62.40
25532;DHT22;13429;48.816;9.118;2024-02-23T12:01:15;8.20;62.50
25532;DHT22;13429;48.816;9.118;2024-02-23T12:03:41;8.20;62.10
25532;DHT22;13429;48.816;9.118;2024-02-23T12:06:10;8.00;61.50
25532;DHT22;13429;48.816;9.118;2024-02-23T12:08:35;8.00;62.80
25532;DHT22;13429;48.816;9.118;2024-02-23T12:11:11;8.20;62.20
25532;DHT22;13429;48.816;9.118;2024-02-23T12:13:39;8.40;62.60
25532;DHT22;13429;48.816;9.118;2024-02-23T12:16:07;8.60;62.50
25532;DHT22;13429;48.816;9.118;2024-02-23T12:18:33;8.80;62.20
25532;DHT22;13429;48.816;9.118;2024-02-23T12:21:06;8.70;62.30
25532;DHT22;13429;48.816;9.118;2024-02-23T12:23:43;8.60;61.30
25532;DHT22;13429;48.816;9.118;2024-02-23T12:26:10;8.60;61.90
25532;DHT22;13429;48.816;9.118;2024-02-23T12:28:38;8.70;62.50
25532;DHT22;13429;48.816;9.118;2024-02-23T12:31:05;8.80;62.30
25532;DHT22;13429;48.816;9.118;2024-02-23T12:33:38;8.80;61.50
25532;DHT22;13429;48.816;9.118;2024-02-23T12:36:07;8.70;61.50
25532;DHT22;13429;48.816;9.118;2024-02-23T12:38:33;8.70;61.40
25532;DHT22;13429;48.816;9.118;2024-02-23T12:41:00;8.70;61.30
25532;DHT22;13429;48.816;9.118;2024-02-23T12:43:26;8.80;61.40
25532;DHT22;13429;48.816;9.118;2024-02-23T12:45:53;8.80;61.10
25532;DHT22;13429;48.816;9.118;2024-02-23T12:48:22;8.80;61.10
25532;DHT22;13429;48.816;9.118;2024-02-23T12:50:49;9.00;61.20
25532;DHT22;13429;48.816;9.118;2024-02-23T12:56:17;8.80;59.80
25532;DHT22;13429;48.816;9.118;2024-02-23T12:58:44;8.70;59.70
25532;DHT22;13429;48.816;9.118;2024-02-23T13:01:10;8.70;61.10
25532;DHT22;13429;48.816;9.118;2024-02-23T13:03:37;8.80;60.40
25532;DHT22;13429;48.816;9.118;2024-02-23T13:06:04;8.90;61.20
25532;DHT22;13429;48.816;9.118;2024-02-23T13:08:30;8.90;60.10
25532;DHT22;13429;48.816;9.118;2024-02-23T13:10:57;8.90;60.60
25532;DHT22;13429;48.816;9.118;2024-02-23T13:13:23;8.80;59.70
25532;DHT22;13429;48.816;9.118;2024-02-23T13:15:50;8.70;60.10
25532;DHT22;13429;48.816;9.118;2024-02-23T13:18:15;8.70;59.50
25532;DHT22;13429;48.816;9.118;2024-02-23T13:20:41;9.00;60.30
25532;DHT22;13429;48.816;9.118;2024-02-23T13:23:08;9.10;59.30
25532;DHT22;13429;48.816;9.118;2024-02-23T13:25:38;9.10;58.90
25532;DHT22;13429;48.816;9.118;2024-02-23T13:28:05;9.30;59.40
25532;DHT22;13429;48.816;9.118;2024-02-23T13:30:31;9.30;59.50
25532;DHT22;13429;48.816;9.118;2024-02-23T13:32:57;9.10;59.00
25532;DHT22;13429;48.816;9.118;2024-02-23T13:35:23;9.10;59.40
25532;DHT22;13429;48.816;9.118;2024-02-23T13:37:49;9.10;60.00
25532;DHT22;13429;48.816;9.118;2024-02-23T13:40:15;9.20;60.00
25532;DHT22;13429;48.816;9.118;2024-02-23T13:42:41;9.20;60.10
25532;DHT22;13429;48.816;9.118;2024-02-23T13:45:07;9.10;59.80
25532;DHT22;13429;48.816;9.118;2024-02-23T13:47:35;9.00;60.30
25532;DHT22;13429;48.816;9.118;2024-02-23T13:50:04;9.10;59.90
25532;DHT22;13429;48.816;9.118;2024-02-23T13:52:31;9.10;60.20
25532;DHT22;13429;48.816;9.118;2024-02-23T13:54:57;9.00;60.60
25532;DHT22;13429;48.816;9.118;2024-02-23T13:57:22;8.90;61.00
25532;DHT22;13429;48.816;9.118;2024-02-23T13:59:48;8.70;60.90
25532;DHT22;13429;48.816;9.118;2024-02-23T14:02:14;8.70;60.80
25532;DHT22;13429;48.816;9.118;2024-02-23T14:04:40;8.80;61.40
25532;DHT22;13429;48.816;9.118;2024-02-23T14:07:07;9.00;61.80
25532;DHT22;13429;48.816;9.118;2024-02-23T14:09:32;9.10;61.30
25532;DHT22;13429;48.816;9.118;2024-02-23T14:11:58;9.10;61.50
25532;DHT22;13429;48.816;9.118;2024-02-23T14:14:24;9.20;61.30
25532;DHT22;13429;48.816;9.118;2024-02-23T14:16:50;9.20;60.10
25532;DHT22;13429;48.816;9.118;2024-02-23T14:19:16;9.20;60.50
25532;DHT22;13429;48.816;9.118;2024-02-23T14:21:42;9.30;60.40
25532;DHT22;13429;48.816;9.118;2024-02-23T14:24:07;9.30;60.90
25532;DHT22;13429;48.816;9.118;2024-02-23T14:26:33;9.30;60.40
25532;DHT22;13429;48.816;9.118;2024-02-23T14:28:59;9.20;60.30
25532;DHT22;13429;48.816;9.118;2024-02-23T14:31:25;9.20;60.80
25532;DHT22;13429;48.816;9.118;2024-02-23T14:33:51;9.10;60.40
25532;DHT22;13429;48.816;9.118;2024-02-23T14:36:18;9.10;60.20
25532;DHT22;13429;48.816;9.118;2024-02-23T14:38:44;9.10;60.30
25532;DHT22;13429;48.816;9.118;2024-02-23T14:41:10;9.10;60.40
25532;DHT22;13429;48.816;9.118;2024-02-23T14:43:36;8.90;60.30
25532;DHT22;13429;48.816;9.118;2024-02-23T14:46:03;8.80;60.70
25532;DHT22;13429;48.816;9.118;2024-02-23T14:48:29;8.90;61.60
25532;DHT22;13429;48.816;9.118;2024-02-23T14:50:54;8.90;61.60
25532;DHT22;13429;48.816;9.118;2024-02-23T14:53:20;9.10;62.20
25532;DHT22;13429;48.816;9.118;2024-02-23T14:55:46;9.00;60.30
25532;DHT22;13429;48.816;9.118;2024-02-23T14:58:12;9.00;61.10
25532;DHT22;13429;48.816;9.118;2024-02-23T15:00:37;9.00;61.20
25532;DHT22;13429;48.816;9.118;2024-02-23T15:03:04;8.90;61.00
25532;DHT22;13429;48.816;9.118;2024-02-23T15:05:30;8.80;60.30
25532;DHT22;13429;48.816;9.118;2024-02-23T15:07:56;8.60;60.90
25532;DHT22;13429;48.816;9.118;2024-02-23T15:10:21;8.60;61.70
25532;DHT22;13429;48.816;9.118;2024-02-23T15:12:47;8.60;61.30
25532;DHT22;13429;48.816;9.118;2024-02-23T15:15:13;8.60;62.10
25532;DHT22;13429;48.816;9.118;2024-02-23T15:17:39;8.50;61.80
25532;DHT22;13429;48.816;9.118;2024-02-23T15:20:08;8.50;62.60
25532;DHT22;13429;48.816;9.118;2024-02-23T15:22:34;8.40;62.70
25532;DHT22;13429;48.816;9.118;2024-02-23T15:25:00;8.40;62.50
25532;DHT22;13429;48.816;9.118;2024-02-23T15:27:25;8.40;62.30
25532;DHT22;13429;48.816;9.118;2024-02-23T15:29:51;8.40;62.60
25532;DHT22;13429;48.816;9.118;2024-02-23T15:32:17;8.40;62.60
25532;DHT22;13429;48.816;9.118;2024-02-23T15:34:43;8.40;62.60
25532;DHT22;13429;48.816;9.118;2024-02-23T15:37:09;8.30;62.90
25532;DHT22;13429;48.816;9.118;2024-02-23T15:39:35;8.20;63.20
25532;DHT22;13429;48.816;9.118;2024-02-23T15:42:01;8.10;63.90
25532;DHT22;13429;48.816;9.118;2024-02-23T15:44:28;8.10;65.00
25532;DHT22;13429;48.816;9.118;2024-02-23T15:46:53;7.90;65.20
25532;DHT22;13429;48.816;9.118;2024-02-23T15:49:19;8.00;64.50
25532;DHT22;13429;48.816;9.118;2024-02-23T15:51:45;8.00;65.90
25532;DHT22;13429;48.816;9.118;2024-02-23T15:54:11;8.10;66.70
25532;DHT22;13429;48.816;9.118;2024-02-23T15:56:38;8.20;69.10